sensor_id;sensor_type;location;lat;lon;timestamp;temperature;humidity
2957;DHT22;1488;51.548;7.222;2022-08-06T00:02:17;26.70;70.40
2957;DHT22;1488;51.548;7.222;2022-08-06T00:04:47;26.70;70.40
2957;DHT22;1488;51.548;7.222;2022-08-06T00:07:14;26.70;70.40
2957;DHT22;1488;51.548;7.222;2022-08-06T00:09:41;26.70;70.40
2957;DHT22;1488;51.548;7.222;2022-08-06T00:12:08;26.70;70.40
2957;DHT22;1488;51.548;7.222;2022-08-06T00:14:35;26.70;70.00
2957;DHT22;1488;51.548;7.222;2022-08-06T00:17:03;26.70;70.60
2957;DHT22;1488;51.548;7.222;2022-08-06T00:19:30;26.70;71.20
2957;DHT22;1488;51.548;7.222;2022-08-06T00:21:58;26.70;71.40
2957;DHT22;1488;51.548;7.222;2022-08-06T00:24:25;26.70;70.80
2957;DHT22;1488;51.548;7.222;2022-08-06T00:26:52;26.70;71.00
2957;DHT22;1488;51.548;7.222;2022-08-06T00:29:19;26.70;70.70
2957;DHT22;1488;51.548;7.222;2022-08-06T00:31:46;26.70;70.90
2957;DHT22;1488;51.548;7.222;2022-08-06T00:34:13;26.70;71.00
2957;DHT22;1488;51.548;7.222;2022-08-06T00:36:40;26.70;71.00
2957;DHT22;1488;51.548;7.222;2022-08-06T00:39:08;26.70;70.90
2957;DHT22;1488;51.548;7.222;2022-08-06T00:41:36;26.70;71.00
2957;DHT22;1488;51.548;7.222;2022-08-06T00:44:03;26.70;71.10
2957;DHT22;1488;51.548;7.222;2022-08-06T00:46:30;26.70;71.20
2957;DHT22;1488;51.548;7.222;2022-08-06T00:48:57;26.70;71.20
2957;DHT22;1488;51.548;7.222;2022-08-06T00:51:24;26.70;71.10
2957;DHT22;1488;51.548;7.222;2022-08-06T00:53:51;26.70;71.00
2957;DHT22;1488;51.548;7.222;2022-08-06T00:56:20;26.70;71.20
2957;DHT22;1488;51.548;7.222;2022-08-06T00:58:47;26.70;70.90
2957;DHT22;1488;51.548;7.222;2022-08-06T01:01:14;26.70;70.90
2957;DHT22;1488;51.548;7.222;2022-08-06T01:03:41;26.70;71.20
2957;DHT22;1488;51.548;7.222;2022-08-06T01:06:07;26.70;71.00
2957;DHT22;1488;51.548;7.222;2022-08-06T01:08:34;26.70;70.80
2957;DHT22;1488;51.548;7.222;2022-08-06T01:11:02;26.70;71.00
2957;DHT22;1488;51.548;7.222;2022-08-06T01:13:30;26.70;71.00
2957;DHT22;1488;51.548;7.222;2022-08-06T01:16:07;26.70;71.00
2957;DHT22;1488;51.548;7.222;2022-08-06T01:18:41;26.70;72.10
2957;DHT22;1488;51.548;7.222;2022-08-06T01:21:18;26.60;71.30
2957;DHT22;1488;51.548;7.222;2022-08-06T01:24:08;26.60;71.20
2957;DHT22;1488;51.548;7.222;2022-08-06T01:26:43;26.70;71.10
2957;DHT22;1488;51.548;7.222;2022-08-06T01:29:17;26.60;71.40
2957;DHT22;1488;51.548;7.222;2022-08-06T01:31:50;26.70;71.30
2957;DHT22;1488;51.548;7.222;2022-08-06T01:34:22;26.60;71.40
2957;DHT22;1488;51.548;7.222;2022-08-06T01:36:56;26.70;71.50
2957;DHT22;1488;51.548;7.222;2022-08-06T01:39:27;26.60;71.20
2957;DHT22;1488;51.548;7.222;2022-08-06T01:41:56;26.60;72.20
2957;DHT22;1488;51.548;7.222;2022-08-06T01:44:29;26.60;71.60
2957;DHT22;1488;51.548;7.222;2022-08-06T01:46:59;26.60;71.50
2957;DHT22;1488;51.548;7.222;2022-08-06T01:49:29;26.60;71.50
2957;DHT22;1488;51.548;7.222;2022-08-06T01:51:59;26.60;71.70
2957;DHT22;1488;51.548;7.222;2022-08-06T01:54:27;26.60;71.60
2957;DHT22;1488;51.548;7.222;2022-08-06T01:56:57;26.60;71.40
2957;DHT22;1488;51.548;7.222;2022-08-06T01:59:30;26.60;71.40
2957;DHT22;1488;51.548;7.222;2022-08-06T02:01:59;26.60;71.40
2957;DHT22;1488;51.548;7.222;2022-08-06T02:04:31;26.60;71.40
2957;DHT22;1488;51.548;7.222;2022-08-06T02:07:01;26.60;71.90
2957;DHT22;1488;51.548;7.222;2022-08-06T02:09:30;26.60;71.70
2957;DHT22;1488;51.548;7.222;2022-08-06T02:12:02;26.60;72.00
2957;DHT22;1488;51.548;7.222;2022-08-06T02:14:34;26.60;71.80
2957;DHT22;1488;51.548;7.222;2022-08-06T02:17:02;26.60;72.10
2957;DHT22;1488;51.548;7.222;2022-08-06T02:19:31;26.60;71.90
2957;DHT22;1488;51.548;7.222;2022-08-06T02:22:00;26.50;71.80
2957;DHT22;1488;51.548;7.222;2022-08-06T02:24:29;26.50;72.00
2957;DHT22;1488;51.548;7.222;2022-08-06T02:26:59;26.50;71.80
2957;DHT22;1488;51.548;7.222;2022-08-06T02:29:27;26.50;72.00
2957;DHT22;1488;51.548;7.222;2022-08-06T02:31:56;26.50;71.90
2957;DHT22;1488;51.548;7.222;2022-08-06T02:34:23;26.50;72.20
2957;DHT22;1488;51.548;7.222;2022-08-06T02:36:55;26.50;72.10
2957;DHT22;1488;51.548;7.222;2022-08-06T02:39:25;26.60;72.20
2957;DHT22;1488;51.548;7.222;2022-08-06T02:42:00;26.50;72.10
2957;DHT22;1488;51.548;7.222;2022-08-06T02:44:37;26.50;72.10
2957;DHT22;1488;51.548;7.222;2022-08-06T02:47:11;26.50;72.00
2957;DHT22;1488;51.548;7.222;2022-08-06T02:49:41;26.50;72.00
2957;DHT22;1488;51.548;7.222;2022-08-06T02:52:16;26.50;72.40
2957;DHT22;1488;51.548;7.222;2022-08-06T02:54:48;26.50;72.30
2957;DHT22;1488;51.548;7.222;2022-08-06T02:57:21;26.50;72.30
2957;DHT22;1488;51.548;7.222;2022-08-06T02:59:52;26.50;72.30
2957;DHT22;1488;51.548;7.222;2022-08-06T03:02:23;26.50;72.30
2957;DHT22;1488;51.548;7.222;2022-08-06T03:04:53;26.50;72.10
2957;DHT22;1488;51.548;7.222;2022-08-06T03:07:23;26.50;72.00
2957;DHT22;1488;51.548;7.222;2022-08-06T03:09:52;26.50;72.20
2957;DHT22;1488;51.548;7.222;2022-08-06T03:12:20;26.50;72.30
2957;DHT22;1488;51.548;7.222;2022-08-06T03:14:48;26.50;72.30
2957;DHT22;1488;51.548;7.222;2022-08-06T03:17:17;26.50;72.30
2957;DHT22;1488;51.548;7.222;2022-08-06T03:19:47;26.50;72.50
2957;DHT22;1488;51.548;7.222;2022-08-06T03:22:16;26.50;72.30
2957;DHT22;1488;51.548;7.222;2022-08-06T03:24:45;26.50;72.40
2957;DHT22;1488;51.548;7.222;2022-08-06T03:27:15;26.50;72.30
2957;DHT22;1488;51.548;7.222;2022-08-06T03:29:42;26.50;72.40
2957;DHT22;1488;51.548;7.222;2022-08-06T03:32:11;26.50;72.30
2957;DHT22;1488;51.548;7.222;2022-08-06T03:34:39;26.50;72.00
2957;DHT22;1488;51.548;7.222;2022-08-06T03:37:08;26.50;72.20
2957;DHT22;1488;51.548;7.222;2022-08-06T03:39:37;26.50;72.30
2957;DHT22;1488;51.548;7.222;2022-08-06T03:42:07;26.50;72.10
2957;DHT22;1488;51.548;7.222;2022-08-06T03:44:34;26.50;72.10
2957;DHT22;1488;51.548;7.222;2022-08-06T03:47:04;26.50;72.40
2957;DHT22;1488;51.548;7.222;2022-08-06T03:49:35;26.50;72.30
2957;DHT22;1488;51.548;7.222;2022-08-06T03:52:04;26.50;72.20
2957;DHT22;1488;51.548;7.222;2022-08-06T03:54:42;26.50;72.40
2957;DHT22;1488;51.548;7.222;2022-08-06T03:57:11;26.50;72.10
2957;DHT22;1488;51.548;7.222;2022-08-06T03:59:41;26.50;72.20
2957;DHT22;1488;51.548;7.222;2022-08-06T04:02:10;26.50;72.30
2957;DHT22;1488;51.548;7.222;2022-08-06T04:04:39;26.50;72.30
2957;DHT22;1488;51.548;7.222;2022-08-06T04:07:06;26.50;72.20
2957;DHT22;1488;51.548;7.222;2022-08-06T04:09:35;26.50;72.30
2957;DHT22;1488;51.548;7.222;2022-08-06T04:12:03;26.50;72.30
2957;DHT22;1488;51.548;7.222;2022-08-06T04:14:30;26.50;72.20
2957;DHT22;1488;51.548;7.222;2022-08-06T04:16:58;26.50;72.10
2957;DHT22;1488;51.548;7.222;2022-08-06T04:19:27;26.50;72.10
2957;DHT22;1488;51.548;7.222;2022-08-06T04:21:54;26.50;72.00
2957;DHT22;1488;51.548;7.222;2022-08-06T04:24:22;26.50;71.90
2957;DHT22;1488;51.548;7.222;2022-08-06T04:26:52;26.50;72.10
2957;DHT22;1488;51.548;7.222;2022-08-06T04:29:21;26.50;72.10
2957;DHT22;1488;51.548;7.222;2022-08-06T04:31:49;26.50;72.10
2957;DHT22;1488;51.548;7.222;2022-08-06T04:34:21;26.50;71.90
2957;DHT22;1488;51.548;7.222;2022-08-06T04:36:49;26.50;72.00
2957;DHT22;1488;51.548;7.222;2022-08-06T04:39:17;26.50;72.10
2957;DHT22;1488;51.548;7.222;2022-08-06T04:41:44;26.50;72.10
2957;DHT22;1488;51.548;7.222;2022-08-06T04:44:13;26.50;72.10
2957;DHT22;1488;51.548;7.222;2022-08-06T04:46:40;26.50;72.00
2957;DHT22;1488;51.548;7.222;2022-08-06T04:49:08;26.50;72.00
2957;DHT22;1488;51.548;7.222;2022-08-06T04:51:37;26.50;71.90
2957;DHT22;1488;51.548;7.222;2022-08-06T04:54:04;26.50;71.90
2957;DHT22;1488;51.548;7.222;2022-08-06T04:56:31;26.50;72.00
2957;DHT22;1488;51.548;7.222;2022-08-06T04:58:58;26.50;71.90
2957;DHT22;1488;51.548;7.222;2022-08-06T05:01:26;26.50;72.00
2957;DHT22;1488;51.548;7.222;2022-08-06T05:03:53;26.40;71.90
2957;DHT22;1488;51.548;7.222;2022-08-06T05:06:24;26.50;72.00
2957;DHT22;1488;51.548;7.222;2022-08-06T05:08:55;26.50;71.90
2957;DHT22;1488;51.548;7.222;2022-08-06T05:11:26;26.50;72.00
2957;DHT22;1488;51.548;7.222;2022-08-06T05:13:57;26.40;71.90
2957;DHT22;1488;51.548;7.222;2022-08-06T05:16:27;26.50;72.00
2957;DHT22;1488;51.548;7.222;2022-08-06T05:18:58;26.50;72.00
2957;DHT22;1488;51.548;7.222;2022-08-06T05:21:30;26.40;71.90
2957;DHT22;1488;51.548;7.222;2022-08-06T05:23:58;26.40;71.90
2957;DHT22;1488;51.548;7.222;2022-08-06T05:26:25;26.50;71.90
2957;DHT22;1488;51.548;7.222;2022-08-06T05:28:53;26.40;71.90
2957;DHT22;1488;51.548;7.222;2022-08-06T05:31:30;26.40;71.90
2957;DHT22;1488;51.548;7.222;2022-08-06T05:33:58;26.50;71.90
2957;DHT22;1488;51.548;7.222;2022-08-06T05:36:24;26.50;72.00
2957;DHT22;1488;51.548;7.222;2022-08-06T05:38:51;26.50;71.90
2957;DHT22;1488;51.548;7.222;2022-08-06T05:41:18;26.40;71.90
2957;DHT22;1488;51.548;7.222;2022-08-06T05:43:45;26.40;71.80
2957;DHT22;1488;51.548;7.222;2022-08-06T05:46:16;26.50;71.90
2957;DHT22;1488;51.548;7.222;2022-08-06T05:48:49;26.40;71.80
2957;DHT22;1488;51.548;7.222;2022-08-06T05:51:21;26.50;71.90
2957;DHT22;1488;51.548;7.222;2022-08-06T05:53:55;26.40;71.90
2957;DHT22;1488;51.548;7.222;2022-08-06T05:56:28;26.50;71.90
2957;DHT22;1488;51.548;7.222;2022-08-06T05:58:59;26.50;71.90
2957;DHT22;1488;51.548;7.222;2022-08-06T06:01:29;26.40;71.80
2957;DHT22;1488;51.548;7.222;2022-08-06T06:03:58;26.40;71.90
2957;DHT22;1488;51.548;7.222;2022-08-06T06:06:26;26.40;71.80
2957;DHT22;1488;51.548;7.222;2022-08-06T06:08:53;26.40;71.90
2957;DHT22;1488;51.548;7.222;2022-08-06T06:11:21;26.50;71.50
2957;DHT22;1488;51.548;7.222;2022-08-06T06:13:49;26.40;70.30
2957;DHT22;1488;51.548;7.222;2022-08-06T06:16:24;26.40;68.70
2957;DHT22;1488;51.548;7.222;2022-08-06T06:19:12;26.40;69.00
2957;DHT22;1488;51.548;7.222;2022-08-06T06:21:47;26.40;68.40
2957;DHT22;1488;51.548;7.222;2022-08-06T06:24:21;26.40;68.30
2957;DHT22;1488;51.548;7.222;2022-08-06T06:26:54;26.40;68.40
2957;DHT22;1488;51.548;7.222;2022-08-06T06:29:33;26.40;70.40
2957;DHT22;1488;51.548;7.222;2022-08-06T06:32:05;26.50;70.00
2957;DHT22;1488;51.548;7.222;2022-08-06T06:34:47;26.40;69.50
2957;DHT22;1488;51.548;7.222;2022-08-06T06:37:23;26.50;70.00
2957;DHT22;1488;51.548;7.222;2022-08-06T06:40:01;26.40;70.40
2957;DHT22;1488;51.548;7.222;2022-08-06T06:42:40;26.40;70.50
2957;DHT22;1488;51.548;7.222;2022-08-06T06:45:11;26.40;70.30
2957;DHT22;1488;51.548;7.222;2022-08-06T06:47:43;26.40;68.90
2957;DHT22;1488;51.548;7.222;2022-08-06T06:50:16;26.40;66.50
2957;DHT22;1488;51.548;7.222;2022-08-06T06:52:48;26.30;64.20
2957;DHT22;1488;51.548;7.222;2022-08-06T06:55:20;26.30;64.00
2957;DHT22;1488;51.548;7.222;2022-08-06T06:57:51;26.30;63.40
2957;DHT22;1488;51.548;7.222;2022-08-06T07:00:19;26.20;62.90
2957;DHT22;1488;51.548;7.222;2022-08-06T07:02:47;26.20;62.70
2957;DHT22;1488;51.548;7.222;2022-08-06T07:05:16;26.30;63.30
2957;DHT22;1488;51.548;7.222;2022-08-06T07:07:46;26.20;64.20
2957;DHT22;1488;51.548;7.222;2022-08-06T07:10:14;26.20;64.60
2957;DHT22;1488;51.548;7.222;2022-08-06T07:12:43;26.20;64.30
2957;DHT22;1488;51.548;7.222;2022-08-06T07:15:12;26.20;63.60
2957;DHT22;1488;51.548;7.222;2022-08-06T07:17:41;26.10;63.40
2957;DHT22;1488;51.548;7.222;2022-08-06T07:20:11;26.10;63.40
2957;DHT22;1488;51.548;7.222;2022-08-06T07:22:42;26.10;63.00
2957;DHT22;1488;51.548;7.222;2022-08-06T07:25:12;26.10;62.80
2957;DHT22;1488;51.548;7.222;2022-08-06T07:27:42;26.10;63.50
2957;DHT22;1488;51.548;7.222;2022-08-06T07:30:11;26.10;64.00
2957;DHT22;1488;51.548;7.222;2022-08-06T07:32:40;26.10;64.30
2957;DHT22;1488;51.548;7.222;2022-08-06T07:35:09;26.10;64.00
2957;DHT22;1488;51.548;7.222;2022-08-06T07:37:41;26.10;64.10
2957;DHT22;1488;51.548;7.222;2022-08-06T07:40:25;26.10;64.00
2957;DHT22;1488;51.548;7.222;2022-08-06T07:42:58;26.10;63.90
2957;DHT22;1488;51.548;7.222;2022-08-06T07:45:28;26.10;63.90
2957;DHT22;1488;51.548;7.222;2022-08-06T07:47:56;26.10;64.00
2957;DHT22;1488;51.548;7.222;2022-08-06T07:50:25;26.10;63.90
2957;DHT22;1488;51.548;7.222;2022-08-06T07:52:55;26.10;63.50
2957;DHT22;1488;51.548;7.222;2022-08-06T07:55:23;26.10;63.80
2957;DHT22;1488;51.548;7.222;2022-08-06T07:57:51;26.10;63.80
2957;DHT22;1488;51.548;7.222;2022-08-06T08:00:18;26.10;64.00
2957;DHT22;1488;51.548;7.222;2022-08-06T08:02:45;26.10;63.70
2957;DHT22;1488;51.548;7.222;2022-08-06T08:05:27;26.10;63.40
2957;DHT22;1488;51.548;7.222;2022-08-06T08:08:12;26.10;63.20
2957;DHT22;1488;51.548;7.222;2022-08-06T08:10:39;26.10;63.20
2957;DHT22;1488;51.548;7.222;2022-08-06T08:13:06;26.10;63.10
2957;DHT22;1488;51.548;7.222;2022-08-06T08:15:34;26.10;63.00
2957;DHT22;1488;51.548;7.222;2022-08-06T08:18:01;26.10;63.30
2957;DHT22;1488;51.548;7.222;2022-08-06T08:20:30;26.10;62.80
2957;DHT22;1488;51.548;7.222;2022-08-06T08:22:57;26.10;61.70
2957;DHT22;1488;51.548;7.222;2022-08-06T08:25:26;26.10;61.20
2957;DHT22;1488;51.548;7.222;2022-08-06T08:27:52;26.10;60.70
2957;DHT22;1488;51.548;7.222;2022-08-06T08:30:19;26.10;60.10
2957;DHT22;1488;51.548;7.222;2022-08-06T08:32:46;26.10;60.20
2957;DHT22;1488;51.548;7.222;2022-08-06T08:35:13;26.10;60.50
2957;DHT22;1488;51.548;7.222;2022-08-06T08:37:41;26.10;60.60
2957;DHT22;1488;51.548;7.222;2022-08-06T08:40:09;26.10;60.10
2957;DHT22;1488;51.548;7.222;2022-08-06T08:42:40;26.10;59.90
2957;DHT22;1488;51.548;7.222;2022-08-06T08:45:09;26.10;59.90
2957;DHT22;1488;51.548;7.222;2022-08-06T08:47:43;26.10;60.00
2957;DHT22;1488;51.548;7.222;2022-08-06T08:50:10;26.10;60.30
2957;DHT22;1488;51.548;7.222;2022-08-06T08:52:39;26.10;59.90
2957;DHT22;1488;51.548;7.222;2022-08-06T08:55:12;26.10;59.80
2957;DHT22;1488;51.548;7.222;2022-08-06T08:57:43;26.10;59.80
2957;DHT22;1488;51.548;7.222;2022-08-06T09:00:10;26.10;59.60
2957;DHT22;1488;51.548;7.222;2022-08-06T09:02:38;26.10;59.30
2957;DHT22;1488;51.548;7.222;2022-08-06T09:05:05;26.00;58.70
2957;DHT22;1488;51.548;7.222;2022-08-06T09:07:33;26.00;59.30
2957;DHT22;1488;51.548;7.222;2022-08-06T09:10:00;26.10;59.20
2957;DHT22;1488;51.548;7.222;2022-08-06T09:12:27;26.10;59.90
2957;DHT22;1488;51.548;7.222;2022-08-06T09:14:56;26.10;61.00
2957;DHT22;1488;51.548;7.222;2022-08-06T09:17:23;26.10;61.90
2957;DHT22;1488;51.548;7.222;2022-08-06T09:19:51;26.10;62.60
2957;DHT22;1488;51.548;7.222;2022-08-06T09:22:18;26.10;62.80
2957;DHT22;1488;51.548;7.222;2022-08-06T09:24:45;26.10;63.60
2957;DHT22;1488;51.548;7.222;2022-08-06T09:27:13;26.20;64.40
2957;DHT22;1488;51.548;7.222;2022-08-06T09:29:49;26.20;64.80
2957;DHT22;1488;51.548;7.222;2022-08-06T09:32:40;26.20;65.20
2957;DHT22;1488;51.548;7.222;2022-08-06T09:35:18;26.20;65.40
2957;DHT22;1488;51.548;7.222;2022-08-06T09:37:45;26.20;65.60
2957;DHT22;1488;51.548;7.222;2022-08-06T09:40:14;26.20;65.80
2957;DHT22;1488;51.548;7.222;2022-08-06T18:45:53;26.20;66.60
2957;DHT22;1488;51.548;7.222;2022-08-06T18:48:21;26.20;66.50
2957;DHT22;1488;51.548;7.222;2022-08-06T18:50:48;26.30;66.30
2957;DHT22;1488;51.548;7.222;2022-08-06T18:53:15;26.30;66.10
2957;DHT22;1488;51.548;7.222;2022-08-06T18:55:42;26.30;66.10
2957;DHT22;1488;51.548;7.222;2022-08-06T18:58:10;26.30;66.10
2957;DHT22;1488;51.548;7.222;2022-08-06T19:00:37;26.30;66.00
2957;DHT22;1488;51.548;7.222;2022-08-06T19:03:07;26.30;65.80
2957;DHT22;1488;51.548;7.222;2022-08-06T19:05:35;26.40;65.90
2957;DHT22;1488;51.548;7.222;2022-08-06T19:08:02;26.40;65.90
2957;DHT22;1488;51.548;7.222;2022-08-06T19:10:29;26.40;66.00
2957;DHT22;1488;51.548;7.222;2022-08-06T19:12:56;26.40;65.90
2957;DHT22;1488;51.548;7.222;2022-08-06T19:15:24;26.40;65.80
2957;DHT22;1488;51.548;7.222;2022-08-06T19:17:51;26.40;65.90
2957;DHT22;1488;51.548;7.222;2022-08-06T19:20:19;26.40;65.80
2957;DHT22;1488;51.548;7.222;2022-08-06T19:22:46;26.40;65.80
2957;DHT22;1488;51.548;7.222;2022-08-06T19:25:13;26.40;65.90
2957;DHT22;1488;51.548;7.222;2022-08-06T19:27:40;26.30;65.70
2957;DHT22;1488;51.548;7.222;2022-08-06T19:30:08;26.40;65.70
2957;DHT22;1488;51.548;7.222;2022-08-06T19:32:35;26.40;65.60
2957;DHT22;1488;51.548;7.222;2022-08-06T19:35:03;26.30;65.50
2957;DHT22;1488;51.548;7.222;2022-08-06T19:37:33;26.40;65.50
2957;DHT22;1488;51.548;7.222;2022-08-06T19:40:01;26.30;65.30
